createdAt,value
2023-01-18T00:01:08.342Z,18.30
2023-01-18T00:06:12.267Z,17.50
2023-01-18T00:11:17.517Z,19.40
2023-01-18T00:16:22.594Z,17.50
2023-01-18T00:21:28.198Z,19.10
2023-01-18T00:26:32.015Z,18.90
2023-01-18T00:31:35.817Z,18.80
2023-01-18T00:36:41.518Z,16.80
2023-01-18T00:42:05.558Z,17.20
2023-01-18T00:47:09.432Z,15.80
2023-01-18T00:52:13.343Z,14.80
2023-01-18T00:57:17.238Z,12.80
2023-01-18T01:02:21.140Z,14.30
2023-01-18T01:07:25.219Z,13.50
2023-01-18T01:12:47.579Z,15.80
2023-01-18T01:18:09.898Z,16.10
2023-01-18T01:23:40.995Z,16.00
2023-01-18T01:28:50.136Z,17.30
2023-01-18T01:33:53.959Z,16.40
2023-01-18T01:38:58.284Z,17.60
2023-01-18T01:44:21.899Z,16.40
2023-01-18T01:49:30.319Z,15.70
2023-01-18T01:54:38.919Z,15.90
2023-01-18T01:59:47.606Z,15.80
2023-01-18T02:04:53.999Z,15.70
2023-01-18T02:09:58.335Z,15.60
2023-01-18T02:15:02.515Z,14.80
2023-01-18T02:20:44.379Z,16.20
2023-01-18T02:26:33.676Z,16.30
2023-01-18T02:32:11.402Z,16.90
2023-01-18T02:37:52.036Z,17.60
2023-01-18T02:43:16.249Z,15.20
2023-01-18T02:48:22.099Z,14.50
2023-01-18T02:53:25.915Z,14.80
2023-01-18T02:58:56.259Z,13.20
2023-01-18T03:04:08.045Z,15.90
2023-01-18T03:09:18.779Z,17.90
2023-01-18T03:14:47.960Z,17.80
2023-01-18T03:20:05.464Z,20.90
2023-01-18T03:25:13.833Z,18.40
2023-01-18T03:30:36.295Z,18.90
2023-01-18T03:35:41.139Z,18.10
2023-01-18T03:40:45.016Z,18.20
2023-01-18T03:45:49.833Z,16.70
2023-01-18T03:51:15.136Z,18.80
2023-01-18T03:56:30.339Z,18.70
2023-01-18T04:01:34.294Z,19.30
2023-01-18T04:06:38.142Z,16.70
2023-01-18T04:11:41.883Z,17.40
2023-01-18T04:16:45.866Z,16.50
2023-01-18T04:21:49.561Z,16.60
2023-01-18T04:26:53.298Z,19.00
2023-01-18T04:31:57.281Z,18.80
2023-01-18T04:37:01.214Z,16.50
2023-01-18T04:42:05.295Z,14.00
2023-01-18T04:47:09.036Z,14.50
2023-01-18T04:52:12.977Z,14.20
2023-01-18T04:57:17.005Z,17.90
2023-01-18T05:02:20.838Z,18.20
2023-01-18T05:07:25.676Z,19.40
2023-01-18T05:12:30.093Z,20.90
2023-01-18T05:17:35.600Z,18.40
2023-01-18T05:22:39.721Z,18.70
2023-01-18T05:27:43.470Z,17.60
2023-01-18T05:32:47.269Z,20.50
2023-01-18T05:37:51.092Z,32.40
2023-01-18T05:42:54.993Z,34.40
2023-01-18T05:47:59.855Z,29.20
2023-01-18T05:53:03.603Z,28.70
2023-01-18T05:58:07.413Z,24.00
2023-01-18T06:03:11.150Z,43.20
2023-01-18T06:08:15.927Z,28.60
2023-01-18T06:13:19.931Z,22.50
2023-01-18T06:18:26.529Z,24.60
2023-01-18T06:23:31.406Z,26.80
2023-01-18T06:28:35.424Z,25.40
2023-01-18T06:33:39.234Z,24.80
2023-01-18T06:38:43.350Z,19.60
2023-01-18T06:43:47.194Z,19.20
2023-01-18T06:48:50.790Z,17.70
2023-01-18T06:53:54.549Z,17.50
2023-01-18T06:58:59.872Z,18.40
2023-01-18T07:04:03.721Z,21.30
2023-01-18T07:09:08.542Z,17.10
2023-01-18T07:14:15.318Z,22.60
2023-01-18T07:19:19.186Z,22.90
2023-01-18T07:24:22.959Z,19.80
2023-01-18T07:29:28.043Z,16.30
2023-01-18T07:34:32.800Z,16.20
2023-01-18T07:39:36.596Z,15.40
2023-01-18T07:44:40.405Z,15.30
2023-01-18T07:49:45.142Z,15.30
2023-01-18T07:54:48.898Z,18.90
2023-01-18T07:59:53.321Z,16.50
2023-01-18T08:04:56.998Z,21.00
2023-01-18T08:10:00.723Z,18.20
2023-01-18T08:15:05.165Z,18.50
2023-01-18T08:20:10.353Z,18.70
2023-01-18T08:25:14.638Z,17.20
2023-01-18T08:30:18.731Z,18.10
2023-01-18T08:35:23.848Z,17.30
2023-01-18T08:40:28.618Z,18.20
2023-01-18T08:45:33.490Z,19.00
2023-01-18T08:50:39.585Z,18.70
2023-01-18T08:55:43.585Z,15.70
2023-01-18T09:00:50.919Z,17.80
2023-01-18T09:05:54.946Z,17.80
2023-01-18T09:11:06.220Z,17.40
2023-01-18T09:16:11.708Z,17.90
2023-01-18T09:21:19.719Z,19.90
2023-01-18T09:26:23.677Z,19.30
2023-01-18T09:31:29.094Z,20.00
2023-01-18T09:36:33.078Z,19.70
2023-01-18T09:41:51.039Z,21.60
2023-01-18T09:47:11.169Z,21.70
2023-01-18T09:53:03.388Z,21.50
2023-01-18T09:58:49.179Z,21.50
2023-01-18T10:03:56.947Z,26.10
2023-01-18T10:09:07.226Z,22.70
2023-01-18T10:14:49.378Z,20.90
2023-01-18T10:19:53.259Z,17.90
2023-01-18T10:25:21.345Z,23.40
2023-01-18T10:30:40.886Z,22.50
2023-01-18T10:35:51.103Z,18.70
2023-01-18T10:41:01.097Z,21.40
2023-01-18T10:46:14.883Z,19.90
2023-01-18T10:51:29.716Z,19.90
2023-01-18T10:56:34.890Z,19.90
2023-01-18T11:01:55.039Z,16.50
2023-01-18T11:07:03.753Z,14.90
2023-01-18T11:12:43.244Z,15.40
2023-01-18T11:18:03.217Z,14.70
2023-01-18T11:23:32.214Z,16.90
2023-01-18T11:28:48.690Z,14.70
2023-01-18T11:34:01.033Z,17.40
2023-01-18T11:39:45.477Z,15.40
2023-01-18T11:45:13.799Z,15.00
2023-01-18T11:50:49.759Z,16.90
2023-01-18T11:56:06.767Z,16.70
2023-01-18T12:01:39.203Z,18.40
2023-01-18T12:07:18.509Z,18.00
2023-01-18T12:12:57.770Z,17.40
2023-01-18T12:18:38.779Z,21.40
2023-01-18T12:24:21.075Z,20.70
2023-01-18T12:29:55.884Z,20.80
2023-01-18T12:35:33.189Z,21.60
2023-01-18T12:41:03.055Z,20.90
2023-01-18T12:46:32.461Z,20.60
2023-01-18T12:51:38.031Z,22.20
2023-01-18T12:56:47.713Z,23.90
2023-01-18T13:02:03.603Z,21.90
2023-01-18T13:07:13.561Z,20.50
2023-01-18T13:12:20.660Z,27.10
2023-01-18T13:17:41.681Z,23.00
2023-01-18T13:23:16.448Z,23.30
2023-01-18T13:28:24.989Z,23.50
2023-01-18T13:33:48.097Z,22.70
2023-01-18T13:39:03.937Z,22.20
2023-01-18T13:44:32.676Z,20.70
2023-01-18T13:49:46.279Z,20.50
2023-01-18T13:55:26.338Z,20.40
2023-01-18T14:00:30.551Z,19.40
2023-01-18T14:05:40.252Z,21.10
2023-01-18T14:10:50.534Z,19.60
2023-01-18T14:15:55.917Z,20.10
2023-01-18T14:21:33.590Z,20.80
2023-01-18T14:26:41.017Z,21.00
2023-01-18T14:31:51.670Z,18.80
2023-01-18T14:36:57.138Z,19.30
2023-01-18T14:42:04.235Z,21.60
2023-01-18T14:47:24.382Z,33.50
2023-01-18T14:52:31.105Z,26.10
2023-01-18T14:57:35.743Z,26.10
2023-01-18T15:02:39.642Z,22.30
2023-01-18T15:07:46.997Z,32.20
2023-01-18T15:12:53.725Z,25.80
2023-01-18T15:18:10.789Z,28.40
2023-01-18T15:23:14.578Z,31.80
2023-01-18T15:28:23.825Z,29.40
2023-01-18T15:33:28.653Z,24.40
2023-01-18T15:38:33.061Z,23.60
2023-01-18T15:43:45.279Z,20.80
2023-01-18T15:48:55.948Z,21.10
2023-01-18T15:53:59.551Z,22.60
2023-01-18T15:59:10.114Z,19.30
2023-01-18T16:04:13.964Z,23.30
2023-01-18T16:09:21.333Z,26.30
2023-01-18T16:14:54.303Z,37.20
2023-01-18T16:25:17.375Z,50.20
2023-01-18T16:30:31.157Z,47.90
2023-01-18T16:35:41.151Z,59.10
2023-01-18T16:40:50.360Z,70.70
2023-01-18T16:45:59.375Z,53.40
2023-01-18T16:51:17.407Z,49.00
2023-01-18T16:56:23.106Z,28.90
2023-01-18T17:01:30.828Z,29.00
2023-01-18T17:06:35.503Z,29.40
2023-01-18T17:11:42.716Z,28.10
2023-01-18T17:16:52.892Z,27.50
2023-01-18T17:21:58.623Z,26.30
2023-01-18T17:27:03.104Z,26.90
2023-01-18T17:32:08.747Z,28.00
2023-01-18T17:37:15.620Z,34.10
2023-01-18T17:42:29.780Z,35.50
2023-01-18T17:47:35.727Z,33.30
2023-01-18T17:52:42.085Z,30.80
2023-01-18T17:57:47.248Z,32.60
2023-01-18T18:02:54.639Z,32.20
2023-01-18T18:08:01.494Z,32.00
2023-01-18T18:13:06.751Z,29.60
2023-01-18T18:18:22.705Z,32.20
2023-01-18T18:23:31.180Z,32.20
2023-01-18T18:28:38.722Z,34.00
2023-01-18T18:33:44.479Z,35.90
2023-01-18T18:38:50.376Z,36.90
2023-01-18T18:43:55.333Z,36.60
2023-01-18T18:49:05.372Z,33.50
2023-01-18T18:54:12.398Z,37.00
2023-01-18T18:59:17.994Z,36.60
2023-01-18T19:04:23.456Z,39.20
2023-01-18T19:09:29.083Z,36.30
2023-01-18T19:14:34.860Z,35.50
2023-01-18T19:19:39.503Z,34.30
2023-01-18T19:24:45.301Z,34.20
2023-01-18T19:29:50.944Z,38.20
2023-01-18T19:34:55.775Z,46.60
2023-01-18T19:40:00.885Z,63.40
2023-01-18T19:45:19.614Z,57.50
2023-01-18T19:50:31.702Z,58.60
2023-01-18T19:55:39.356Z,43.00
2023-01-18T20:00:46.209Z,36.90
2023-01-18T20:05:51.380Z,41.90
2023-01-18T20:10:56.511Z,35.30
2023-01-18T20:16:06.457Z,34.00
2023-01-18T20:21:14.920Z,35.10
2023-01-18T20:26:34.918Z,36.20
2023-01-18T20:31:49.629Z,34.90
2023-01-18T20:37:03.438Z,34.70
2023-01-18T20:42:10.977Z,37.90
2023-01-18T20:47:17.676Z,36.30
2023-01-18T20:52:22.286Z,34.40
2023-01-18T20:57:32.942Z,38.30
2023-01-18T21:02:38.096Z,41.00
2023-01-18T21:07:42.243Z,36.00
2023-01-18T21:12:48.275Z,33.20
2023-01-18T21:17:54.960Z,34.70
2023-01-18T21:23:00.557Z,32.40
2023-01-18T21:28:04.575Z,33.70
2023-01-18T21:33:11.685Z,33.30
2023-01-18T21:38:16.605Z,36.00
2023-01-18T21:43:40.659Z,36.80
2023-01-18T21:48:44.376Z,33.60
2023-01-18T21:54:07.497Z,32.10
2023-01-18T21:59:38.325Z,39.70
2023-01-18T22:18:16.048Z,30.90
2023-01-18T22:23:23.574Z,33.60
2023-01-18T22:28:29.377Z,30.70
2023-01-18T22:33:33.559Z,32.00
2023-01-18T22:38:38.383Z,31.50
2023-01-18T22:43:42.825Z,29.20
2023-01-18T22:48:50.389Z,29.70
2023-01-18T22:53:58.862Z,28.10
2023-01-18T22:59:02.746Z,28.80
2023-01-18T23:04:07.096Z,30.30
2023-01-18T23:09:10.844Z,31.20
2023-01-18T23:14:33.396Z,29.80
2023-01-18T23:19:37.171Z,33.20
2023-01-18T23:24:40.945Z,35.60
2023-01-18T23:29:47.705Z,28.80
2023-01-18T23:34:51.516Z,31.80
2023-01-18T23:40:14.486Z,35.80
2023-01-18T23:45:37.097Z,32.40
2023-01-18T23:50:59.629Z,30.30
2023-01-18T23:56:03.382Z,29.10
